Rickmers New Orleans — V7FF2 — position and weather

sailwx.info

Track history (hours):
 
Tides and Currents Weather Stations Pressure Air Temp Water Temp Dewpoint Dewpoint Depression Visibility Wind Speed Wind Dir Waves Ship Positions

Rickmers New Orleans

Last reported at 2015-May-04 22:33 UTC. Time now 2015-May-04 23:08 UTC.
Position N 38°58' E 117°47'.

Length 192.9 m; beam 27.8 m; draft 11.2 m.

Type: Ship (hazmat cat A). MMSI: 538001922.

Date/timePositionNaut miles runAvg speedWind from/ knotsBaromVisibWave heightAir tempDewpointWater temp
2015-May-04 22:33N 38°58' E 117°47'16 1.1
2015-May-04 07:28N 38°54' E 118°07'9115.3
2015-May-04 01:30N 38°41' E 120°04'1515.2
2015-May-04 00:31N 38°40' E 120°23'4213.8
2015-May-03 21:30N 38°28' E 121°14'1414.1
2015-May-03 20:31N 38°20' E 121°29'1414.8
2015-May-03 19:33N 38°12' E 121°44'1515.0
2015-May-03 18:33N 38°04' E 121°60'1514.8
2015-May-03 17:33N 37°55' E 122°14'1414.1
2015-May-03 16:33N 37°46' E 122°28'1313.3
2015-May-03 15:34N 37°37' E 122°41'1312.5
2015-May-03 14:33N 37°28' E 122°51'1312.8
2015-May-03 13:33N 37°15' E 122°53'37013.7
2015-May-02 10:33N 31°06' E 122°20'1313.3
2015-May-02 09:34N 31°13' E 122°07'1514.6
2015-May-02 08:34N 31°17' E 121°51'1313.0
2015-May-02 07:34N 31°22' E 121°37'1111.5
2015-May-02 06:34N 31°29' E 121°26'3 2.8
2015-May-02 05:33N 31°30' E 121°23'0 0.0
2015-May-02 04:30N 31°30' E 121°23'0 0.0
2015-May-02 03:33N 31°30' E 121°23'0 0.0
2015-May-02 02:33N 31°30' E 121°23'0 0.0
2015-May-02 01:30N 31°30' E 121°23'0 0.0
2015-May-02 00:33N 31°30' E 121°23'0 0.0
2015-May-01 23:33N 31°30' E 121°23'0 0.0
2015-May-01 22:33N 31°30' E 121°23'0 0.0
2015-May-01 21:30N 31°30' E 121°23'0 0.0
2015-May-01 20:33N 31°30' E 121°23'0 0.0
2015-May-01 19:30N 31°30' E 121°23'0 0.0
2015-May-01 18:33N 31°30' E 121°23'0 0.0
2015-May-01 17:30N 31°30' E 121°23'0 0.0
2015-May-01 16:33N 31°30' E 121°23'0 0.0
2015-May-01 15:33N 31°30' E 121°23'0 0.0
2015-May-01 14:33N 31°30' E 121°23'0 0.0
2015-May-01 13:33N 31°30' E 121°23'0 0.0
2015-May-01 12:27N 31°30' E 121°23'0 0.0
2015-May-01 11:33N 31°30' E 121°23'0 0.0
2015-May-01 10:33N 31°30' E 121°23'0 0.0
2015-May-01 09:30N 31°30' E 121°23'0 0.0
2015-May-01 08:33N 31°30' E 121°23'0 0.0
2015-May-01 07:30N 31°30' E 121°23'0 0.0
2015-May-01 06:33N 31°30' E 121°23'0 0.0
2015-May-01 05:30N 31°30' E 121°23'0 0.0
2015-May-01 04:24N 31°30' E 121°23'0 0.0
2015-May-01 03:33N 31°30' E 121°23'0 0.0
2015-May-01 02:33N 31°30' E 121°23'0 0.0
2015-May-01 01:30N 31°30' E 121°23'0 0.0
2015-May-01 00:30N 31°30' E 121°23'0 0.0
2015-Apr-30 23:33N 31°30' E 121°23'0 0.0
2015-Apr-30 22:33N 31°30' E 121°23'0 0.0
2015-Apr-30 21:30N 31°30' E 121°23'0 0.0
2015-Apr-30 20:33N 31°30' E 121°23'0 0.0
2015-Apr-30 19:30N 31°30' E 121°23'0 0.0
2015-Apr-30 18:30N 31°30' E 121°23'0 0.0
2015-Apr-30 17:33N 31°30' E 121°23'1 1.1
2015-Apr-30 16:33N 31°30' E 121°24'6 5.6
2015-Apr-30 15:33N 31°26' E 121°29'8 8.3
2015-Apr-30 14:33N 31°22' E 121°38'10 9.8
2015-Apr-30 13:33N 31°18' E 121°48'10 9.6
2015-Apr-30 12:33N 31°15' E 121°59'1312.5
2015-Apr-30 11:33N 31°10' E 122°12'1312.9
2015-Apr-30 10:33N 31°07' E 122°27'9 9.2
2015-Apr-30 09:33N 31°07' E 122°37'3 1.0
2015-Apr-30 06:12N 31°10' E 122°39'0 0.0
2015-Apr-29 17:30N 31°10' E 122°39'0 0.0
2015-Apr-28 19:17N 31°10' E 122°39'0 0.1
2015-Apr-28 18:32N 31°10' E 122°39'1 0.2
2015-Apr-28 13:32N 31°11' E 122°39'6 1.8
2015-Apr-28 10:03N 31°06' E 122°44'4214.9
2015-Apr-28 07:15N 30°28' E 123°03'1515.3
2015-Apr-28 06:16N 30°13' E 123°05'1415.1
2015-Apr-28 05:20N 29°59' E 123°05'1715.4
2015-Apr-28 04:16N 29°43' E 122°58'1315.3
2015-Apr-28 03:25N 29°31' E 122°53'43015.9
2015-Apr-27 00:23N 22°56' E 119°44'2815.5
2015-Apr-26 22:33N 22°28' E 119°47'  
Track history (hours):
 
Tides and Currents Weather Stations Pressure Air Temp Water Temp Dewpoint Dewpoint Depression Visibility Wind Speed Wind Dir Waves Ship Positions

Rickmers New Orleans

Last reported at 2015-May-04 22:33 UTC. Time now 2015-May-04 23:08 UTC.
Position N 38°58' E 117°47'.

Length 192.9 m; beam 27.8 m; draft 11.2 m.

Type: Ship (hazmat cat A). MMSI: 538001922.

Date/timePositionNaut miles runAvg speedWind from/ knotsBaromVisibWave heightAir tempDewpointWater temp
2015-May-04 22:33N 38°58' E 117°47'16 1.1
2015-May-04 07:28N 38°54' E 118°07'9115.3
2015-May-04 01:30N 38°41' E 120°04'1515.2
2015-May-04 00:31N 38°40' E 120°23'4213.8
2015-May-03 21:30N 38°28' E 121°14'1414.1
2015-May-03 20:31N 38°20' E 121°29'1414.8
2015-May-03 19:33N 38°12' E 121°44'1515.0
2015-May-03 18:33N 38°04' E 121°60'1514.8
2015-May-03 17:33N 37°55' E 122°14'1414.1
2015-May-03 16:33N 37°46' E 122°28'1313.3
2015-May-03 15:34N 37°37' E 122°41'1312.5
2015-May-03 14:33N 37°28' E 122°51'1312.8
2015-May-03 13:33N 37°15' E 122°53'37013.7
2015-May-02 10:33N 31°06' E 122°20'1313.3
2015-May-02 09:34N 31°13' E 122°07'1514.6
2015-May-02 08:34N 31°17' E 121°51'1313.0
2015-May-02 07:34N 31°22' E 121°37'1111.5
2015-May-02 06:34N 31°29' E 121°26'3 2.8
2015-May-02 05:33N 31°30' E 121°23'0 0.0
2015-May-02 04:30N 31°30' E 121°23'0 0.0
2015-May-02 03:33N 31°30' E 121°23'0 0.0
2015-May-02 02:33N 31°30' E 121°23'0 0.0
2015-May-02 01:30N 31°30' E 121°23'0 0.0
2015-May-02 00:33N 31°30' E 121°23'0 0.0
2015-May-01 23:33N 31°30' E 121°23'0 0.0
2015-May-01 22:33N 31°30' E 121°23'0 0.0
2015-May-01 21:30N 31°30' E 121°23'0 0.0
2015-May-01 20:33N 31°30' E 121°23'0 0.0
2015-May-01 19:30N 31°30' E 121°23'0 0.0
2015-May-01 18:33N 31°30' E 121°23'0 0.0
2015-May-01 17:30N 31°30' E 121°23'0 0.0
2015-May-01 16:33N 31°30' E 121°23'0 0.0
2015-May-01 15:33N 31°30' E 121°23'0 0.0
2015-May-01 14:33N 31°30' E 121°23'0 0.0
2015-May-01 13:33N 31°30' E 121°23'0 0.0
2015-May-01 12:27N 31°30' E 121°23'0 0.0
2015-May-01 11:33N 31°30' E 121°23'0 0.0
2015-May-01 10:33N 31°30' E 121°23'0 0.0
2015-May-01 09:30N 31°30' E 121°23'0 0.0
2015-May-01 08:33N 31°30' E 121°23'0 0.0
2015-May-01 07:30N 31°30' E 121°23'0 0.0
2015-May-01 06:33N 31°30' E 121°23'0 0.0
2015-May-01 05:30N 31°30' E 121°23'0 0.0
2015-May-01 04:24N 31°30' E 121°23'0 0.0
2015-May-01 03:33N 31°30' E 121°23'0 0.0
2015-May-01 02:33N 31°30' E 121°23'0 0.0
2015-May-01 01:30N 31°30' E 121°23'0 0.0
2015-May-01 00:30N 31°30' E 121°23'0 0.0
2015-Apr-30 23:33N 31°30' E 121°23'0 0.0
2015-Apr-30 22:33N 31°30' E 121°23'0 0.0
2015-Apr-30 21:30N 31°30' E 121°23'0 0.0
2015-Apr-30 20:33N 31°30' E 121°23'0 0.0
2015-Apr-30 19:30N 31°30' E 121°23'0 0.0
2015-Apr-30 18:30N 31°30' E 121°23'0 0.0
2015-Apr-30 17:33N 31°30' E 121°23'1 1.1
2015-Apr-30 16:33N 31°30' E 121°24'6 5.6
2015-Apr-30 15:33N 31°26' E 121°29'8 8.3
2015-Apr-30 14:33N 31°22' E 121°38'10 9.8
2015-Apr-30 13:33N 31°18' E 121°48'10 9.6
2015-Apr-30 12:33N 31°15' E 121°59'1312.5
2015-Apr-30 11:33N 31°10' E 122°12'1312.9
2015-Apr-30 10:33N 31°07' E 122°27'9 9.2
2015-Apr-30 09:33N 31°07' E 122°37'3 1.0
2015-Apr-30 06:12N 31°10' E 122°39'0 0.0
2015-Apr-29 17:30N 31°10' E 122°39'0 0.0
2015-Apr-28 19:17N 31°10' E 122°39'0 0.1
2015-Apr-28 18:32N 31°10' E 122°39'1 0.2
2015-Apr-28 13:32N 31°11' E 122°39'6 1.8
2015-Apr-28 10:03N 31°06' E 122°44'4214.9
2015-Apr-28 07:15N 30°28' E 123°03'1515.3
2015-Apr-28 06:16N 30°13' E 123°05'1415.1
2015-Apr-28 05:20N 29°59' E 123°05'1715.4
2015-Apr-28 04:16N 29°43' E 122°58'1315.3
2015-Apr-28 03:25N 29°31' E 122°53'43015.9
2015-Apr-27 00:23N 22°56' E 119°44'2815.5
2015-Apr-26 22:33N 22°28' E 119°47'  

Dump ship's entire track history